Terminal Aerodrome Forecast
Issued by NWS

Home | Current Version | Previous Version | Text Only | Print | Product List | Glossary On
Versions: 1 2 3 4 5 6 7 8 9 10 11 12 13 14 15
000
FTUS44 KOHX 292329
TAFCKV
TAF
KCKV 292329Z 3000/3024 19009KT P6SM SCT070 BKN200
     FM300900 00000KT 5SM BR BKN150
     FM301300 18007KT P6SM VCSH SCT025 BKN060 PROB30 3020/3024 4SM
      TSRA BKN025CB=

USA.gov is the U.S. government's official web portal to all federal, state and local government web resources and services.